Terminal Aerodrome Forecast
Issued by NWS

Home | Current Version | Previous Version | Text Only | Print | Product List | Glossary On
Versions: 1 2 3 4 5 6 7 8 9 10 11 12 13 14
000
FTUS41 KBTV 230551
TAFRUT
TAF
KRUT 230551Z 2306/2406 13007KT P6SM OVC040
     FM231400 16008G16KT P6SM OVC040
     FM232300 20006KT P6SM VCSH OVC035
     FM240300 26005KT P6SM OVC035=

USA.gov is the U.S. government's official web portal to all federal, state and local government web resources and services.